createdAt,value
2018-09-04T00:00:26.360Z,16.9
2018-09-04T00:01:16.725Z,16.9
2018-09-04T00:02:06.785Z,16.9
2018-09-04T00:02:56.571Z,16.9
2018-09-04T00:04:37.231Z,16.9
2018-09-04T00:05:27.054Z,16.9
2018-09-04T00:06:16.831Z,16.9
2018-09-04T00:07:06.903Z,16.9
2018-09-04T00:07:57.236Z,16.9
2018-09-04T00:08:47.295Z,16.9
2018-09-04T00:09:37.375Z,16.9
2018-09-04T00:10:27.495Z,16.9
2018-09-04T00:11:17.506Z,16.9
2018-09-04T00:12:07.567Z,16.9
2018-09-04T00:31:38.804Z,16.8
2018-09-04T00:32:29.386Z,16.8
2018-09-04T00:33:19.451Z,16.8
2018-09-04T00:34:09.466Z,16.8
2018-09-04T00:34:59.291Z,16.8
2018-09-04T00:35:49.632Z,16.8
2018-09-04T00:36:39.754Z,16.8
2018-09-04T00:37:29.185Z,16.8
2018-09-04T00:38:19.821Z,16.8
2018-09-04T00:39:09.886Z,16.8
2018-09-04T00:39:59.673Z,16.8
2018-09-04T00:40:49.726Z,16.8
2018-09-04T00:41:40.038Z,16.8
2018-09-04T00:42:30.151Z,16.7
2018-09-04T00:43:20.200Z,16.8
2018-09-04T00:44:09.683Z,16.8
2018-09-04T00:45:00.341Z,16.7
2018-09-04T00:45:50.101Z,16.7
2018-09-04T00:46:40.476Z,16.7
2018-09-04T00:47:30.532Z,16.7
2018-09-04T00:48:20.581Z,16.7
2018-09-04T00:49:10.373Z,16.7
2018-09-04T00:50:00.448Z,16.7
2018-09-04T00:50:50.490Z,16.6
2018-09-04T00:51:40.850Z,16.6
2018-09-04T00:52:30.636Z,16.6
2018-09-04T00:53:20.683Z,16.6
2018-09-04T00:54:10.755Z,16.6
2018-09-04T00:55:00.807Z,16.6
2018-09-04T00:55:51.165Z,16.6
2018-09-04T00:56:40.669Z,16.6
2018-09-04T00:57:31.014Z,16.6
2018-09-04T00:58:21.099Z,16.6
2018-09-04T00:59:11.161Z,16.6
2018-09-04T01:00:01.315Z,16.6
2018-09-04T01:00:51.550Z,16.6
2018-09-04T01:01:41.336Z,16.6
2018-09-04T01:02:31.700Z,16.6
2018-09-04T01:03:21.743Z,16.6
2018-09-04T01:04:11.814Z,16.5
2018-09-04T01:05:01.885Z,16.5
2018-09-04T01:05:51.952Z,16.5
2018-09-04T01:06:42.014Z,16.5
2018-09-04T01:07:32.069Z,16.4
2018-09-04T01:08:21.857Z,16.4
2018-09-04T01:09:11.912Z,16.4
2018-09-04T01:10:02.264Z,16.4
2018-09-04T01:10:52.034Z,16.4
2018-09-04T01:11:42.116Z,16.4
2018-09-04T01:12:32.459Z,16.4
2018-09-04T01:13:22.528Z,16.4
2018-09-04T01:14:12.604Z,16.4
2018-09-04T01:15:02.361Z,16.4
2018-09-04T01:15:52.716Z,16.3
2018-09-04T01:16:42.201Z,16.3
2018-09-04T01:17:32.521Z,16.3
2018-09-04T01:18:22.913Z,16.3
2018-09-04T01:19:12.969Z,16.3
2018-09-04T01:20:03.054Z,16.3
2018-09-04T01:20:53.098Z,16.3
2018-09-04T01:21:43.185Z,16.3
2018-09-04T01:22:33.238Z,16.3
2018-09-04T01:23:23.029Z,16.3
2018-09-04T01:24:13.373Z,16.3
2018-09-04T01:25:03.426Z,16.3
2018-09-04T01:25:53.476Z,16.3
2018-09-04T01:26:43.265Z,16.3
2018-09-04T01:27:33.321Z,16.2
2018-09-04T01:28:23.391Z,16.2
2018-09-04T01:29:13.748Z,16.2
2018-09-04T01:30:03.828Z,16.2
2018-09-04T01:30:53.589Z,16.2
2018-09-04T01:31:43.945Z,16.2
2018-09-04T01:32:33.718Z,16.2
2018-09-04T01:33:24.077Z,16.2
2018-09-04T01:34:14.141Z,16.2
2018-09-04T01:35:04.206Z,16.2
2018-09-04T01:35:54.272Z,16.1
2018-09-04T01:36:44.042Z,16.1
2018-09-04T01:37:34.415Z,16.1
2018-09-04T01:38:24.175Z,16.1
2018-09-04T01:39:15.025Z,16.1
2018-09-04T01:40:04.591Z,16.1
2018-09-04T01:40:54.092Z,16.1
2018-09-04T01:41:44.727Z,16.1
2018-09-04T01:42:34.792Z,16.1
2018-09-04T01:43:24.552Z,16.1
2018-09-04T01:44:14.612Z,16.1
2018-09-04T01:45:04.974Z,16.1
2018-09-04T01:45:55.034Z,16.1
2018-09-04T01:46:45.102Z,16.1
2018-09-04T01:47:35.164Z,16.1
2018-09-04T01:48:25.192Z,16.1
2018-09-04T01:49:15.009Z,16.1
2018-09-04T01:50:05.359Z,16.1
2018-09-04T01:50:55.676Z,16.1
2018-09-04T01:51:45.484Z,16
2018-09-04T01:52:35.557Z,16.1
2018-09-04T01:53:25.613Z,16
2018-09-04T01:54:15.391Z,16
2018-09-04T01:55:05.762Z,16
2018-09-04T01:55:55.524Z,16
2018-09-04T01:56:45.879Z,16
2018-09-04T01:57:35.381Z,16
2018-09-04T01:58:26.251Z,16
2018-09-04T01:59:16.057Z,16
2018-09-04T02:00:05.570Z,16
2018-09-04T02:00:55.916Z,15.9
2018-09-04T02:01:45.961Z,15.9
2018-09-04T02:02:36.328Z,15.9
2018-09-04T02:03:26.108Z,15.9
2018-09-04T02:04:15.883Z,15.9
2018-09-04T02:05:06.525Z,15.9
2018-09-04T02:05:56.578Z,15.9
2018-09-04T02:06:46.640Z,15.9
2018-09-04T02:07:36.435Z,15.9
2018-09-04T02:08:26.445Z,15.9
2018-09-04T02:09:16.588Z,15.9
2018-09-04T02:10:06.914Z,15.9
2018-09-04T02:10:56.967Z,15.9
2018-09-04T02:11:47.288Z,15.9
2018-09-04T02:12:37.091Z,15.9
2018-09-04T02:13:27.162Z,15.8
2018-09-04T02:14:16.951Z,15.8
2018-09-04T02:15:06.994Z,15.8
2018-09-04T02:15:57.360Z,15.8
2018-09-04T02:16:47.679Z,15.8
2018-09-04T02:17:37.197Z,15.8
2018-09-04T02:18:26.975Z,15.8
2018-09-04T02:19:17.603Z,15.8
2018-09-04T02:20:07.380Z,15.8
2018-09-04T02:20:57.740Z,15.8
2018-09-04T02:21:47.800Z,15.8
2018-09-04T02:22:37.299Z,15.8
2018-09-04T02:23:27.637Z,15.8
2018-09-04T02:24:18.000Z,15.7
2018-09-04T02:25:08.401Z,15.7
2018-09-04T02:25:58.131Z,15.8
2018-09-04T02:26:48.193Z,15.7
2018-09-04T02:27:37.982Z,15.7
2018-09-04T02:28:28.334Z,15.7
2018-09-04T02:29:18.391Z,15.7
2018-09-04T02:30:08.172Z,15.7
2018-09-04T02:30:58.514Z,15.7
2018-09-04T02:31:48.581Z,15.6
2018-09-04T02:32:38.084Z,15.6
2018-09-04T02:33:28.720Z,15.6
2018-09-04T02:34:18.769Z,15.6
2018-09-04T02:35:08.556Z,15.6
2018-09-04T02:35:58.655Z,15.6
2018-09-04T02:36:48.961Z,15.6
2018-09-04T02:37:38.770Z,15.6
2018-09-04T02:38:29.098Z,15.6
2018-09-04T02:39:19.124Z,15.6
2018-09-04T02:40:08.921Z,15.6
2018-09-04T02:40:59.011Z,15.6
2018-09-04T02:41:49.346Z,15.6
2018-09-04T02:42:38.854Z,15.6
2018-09-04T02:43:29.189Z,15.6
2018-09-04T02:44:19.256Z,15.6
2018-09-04T02:45:09.304Z,15.5
2018-09-04T02:45:59.672Z,15.5
2018-09-04T02:46:49.742Z,15.5
2018-09-04T02:47:39.526Z,15.5
2018-09-04T02:48:29.865Z,15.5
2018-09-04T02:49:19.648Z,15.5
2018-09-04T02:50:09.998Z,15.4
2018-09-04T02:51:00.053Z,15.4
2018-09-04T02:51:49.833Z,15.4
2018-09-04T02:52:40.446Z,15.4
2018-09-04T02:53:30.255Z,15.4
2018-09-04T02:54:19.740Z,15.4
2018-09-04T02:55:10.096Z,15.4
2018-09-04T02:56:00.433Z,15.4
2018-09-04T02:56:50.510Z,15.4
2018-09-04T02:57:40.295Z,15.4
2018-09-04T02:58:30.625Z,15.4
2018-09-04T02:59:20.710Z,15.4
2018-09-04T03:00:10.770Z,15.4
2018-09-04T03:01:00.831Z,15.4
2018-09-04T03:01:50.620Z,15.4
2018-09-04T03:02:40.969Z,15.4
2018-09-04T03:03:31.017Z,15.4
2018-09-04T03:04:21.084Z,15.3
2018-09-04T03:05:11.149Z,15.3
2018-09-04T03:06:00.930Z,15.3
2018-09-04T03:06:51.272Z,15.3
2018-09-04T03:07:41.342Z,15.3
2018-09-04T03:08:31.122Z,15.3
2018-09-04T03:09:20.894Z,15.3
2018-09-04T03:10:11.527Z,15.3
2018-09-04T03:11:01.314Z,15.3
2018-09-04T03:11:51.724Z,15.3
2018-09-04T03:12:41.747Z,15.3
2018-09-04T03:13:32.228Z,15.3
2018-09-04T03:14:21.564Z,15.3
2018-09-04T03:15:11.924Z,15.3
2018-09-04T03:16:01.691Z,15.3
2018-09-04T03:16:52.069Z,15.3
2018-09-04T03:17:42.126Z,15.3
2018-09-04T03:18:31.888Z,15.2
2018-09-04T03:19:22.241Z,15.2
2018-09-04T03:20:12.021Z,15.3
2018-09-04T03:21:02.425Z,15.2
2018-09-04T03:21:52.489Z,15.3
2018-09-04T03:22:42.231Z,15.2
2018-09-04T03:23:32.001Z,15.2
2018-09-04T03:24:22.631Z,15.2
2018-09-04T03:25:13.246Z,15.2
2018-09-04T03:26:02.811Z,15.2
2018-09-04T03:26:52.546Z,15.2
2018-09-04T03:27:42.609Z,15.2
2018-09-04T03:28:32.668Z,15.2
2018-09-04T03:29:23.035Z,15.2
2018-09-04T03:30:13.083Z,15.2
2018-09-04T03:31:03.455Z,15.2
2018-09-04T03:31:53.220Z,15.2
2018-09-04T03:32:42.712Z,15.2
2018-09-04T03:33:33.052Z,15.2
2018-09-04T03:34:23.653Z,15.2
2018-09-04T03:35:13.460Z,15.2
2018-09-04T03:36:03.482Z,15.2
2018-09-04T03:36:53.305Z,15.2
2018-09-04T03:37:43.650Z,15.2
2018-09-04T03:38:33.707Z,15.2
2018-09-04T03:39:23.485Z,15.2
2018-09-04T03:40:13.850Z,15.2
2018-09-04T03:41:04.137Z,15.2
2018-09-04T03:41:53.697Z,15.2
2018-09-04T03:42:43.771Z,15.2
2018-09-04T03:43:34.105Z,15.2
2018-09-04T03:44:23.680Z,15.2
2018-09-04T03:45:13.962Z,15.2
2018-09-04T03:46:04.020Z,15.2
2018-09-04T03:46:54.329Z,15.2
2018-09-04T03:47:44.440Z,15.2
2018-09-04T03:48:34.492Z,15.2
2018-09-04T03:49:24.544Z,15.2
2018-09-04T03:50:14.327Z,15.2
2018-09-04T03:51:04.496Z,15.2
2018-09-04T03:51:54.469Z,15.2
2018-09-04T03:52:44.819Z,15.2
2018-09-04T03:53:34.301Z,15.2
2018-09-04T03:54:24.946Z,15.2
2018-09-04T03:55:14.729Z,15.2
2018-09-04T03:56:05.068Z,15.2
2018-09-04T03:56:55.138Z,15.2
2018-09-04T03:57:44.911Z,15.2
2018-09-04T03:58:34.976Z,15.2
2018-09-04T03:59:25.337Z,15.3
2018-09-04T04:00:15.094Z,15.3
2018-09-04T04:01:05.458Z,15.3
2018-09-04T04:01:55.236Z,15.2
2018-09-04T04:02:45.006Z,15.3
2018-09-04T04:03:35.378Z,15.3
2018-09-04T04:04:25.739Z,15.3
2018-09-04T04:05:15.780Z,15.2
2018-09-04T04:06:05.550Z,15.2
2018-09-04T04:06:55.898Z,15.3
2018-09-04T04:07:45.687Z,15.3
2018-09-04T04:08:35.758Z,15.3
2018-09-04T04:09:26.102Z,15.3
2018-09-04T04:10:15.892Z,15.3
2018-09-04T04:11:05.945Z,15.3
2018-09-04T04:11:56.664Z,15.3
2018-09-04T04:12:46.357Z,15.3
2018-09-04T04:13:36.136Z,15.2
2018-09-04T04:14:26.529Z,15.3
2018-09-04T04:15:16.542Z,15.3
2018-09-04T04:16:06.620Z,15.3
2018-09-04T04:16:56.098Z,15.3
2018-09-04T04:17:46.730Z,15.3
2018-09-04T04:18:36.806Z,15.3
2018-09-04T04:19:26.882Z,15.3
2018-09-04T04:20:17.194Z,15.3
2018-09-04T04:21:06.997Z,15.3
2018-09-04T04:21:57.053Z,15.3
2018-09-04T04:22:47.124Z,15.3
2018-09-04T04:23:37.195Z,15.3
2018-09-04T04:24:27.258Z,15.3
2018-09-04T04:25:17.331Z,15.3
2018-09-04T04:26:07.389Z,15.3
2018-09-04T04:26:57.450Z,15.3
2018-09-04T04:27:47.507Z,15.3
2018-09-04T04:28:37.280Z,15.3
2018-09-04T04:29:27.052Z,15.3
2018-09-04T04:30:17.701Z,15.3
2018-09-04T04:31:07.749Z,15.3
2018-09-04T04:31:57.544Z,15.3
2018-09-04T04:32:48.086Z,15.3
2018-09-04T04:33:37.976Z,15.3
2018-09-04T04:34:27.752Z,15.3
2018-09-04T04:35:18.091Z,15.3
2018-09-04T04:36:08.148Z,15.3
2018-09-04T04:36:57.641Z,15.4
2018-09-04T04:37:48.283Z,15.4
2018-09-04T04:38:38.362Z,15.4
2018-09-04T04:39:28.398Z,15.4
2018-09-04T04:40:18.175Z,15.4
2018-09-04T04:41:08.523Z,15.4
2018-09-04T04:41:58.324Z,15.4
2018-09-04T04:42:48.673Z,15.4
2018-09-04T05:00:27.649Z,15.6
2018-09-04T05:01:16.917Z,15.7
2018-09-04T05:02:07.282Z,15.7
2018-09-04T05:02:57.337Z,15.7
2018-09-04T05:03:47.116Z,15.7
2018-09-04T05:04:37.469Z,15.8
2018-09-04T05:05:27.916Z,15.8
2018-09-04T05:06:17.884Z,15.8
2018-09-04T05:07:07.352Z,15.8
2018-09-04T05:07:57.717Z,15.8
2018-09-04T05:08:47.509Z,15.8
2018-09-04T05:09:37.851Z,15.8
2018-09-04T05:10:27.609Z,15.8
2018-09-04T05:11:18.685Z,15.8
2018-09-04T05:12:08.024Z,15.9
2018-09-04T05:12:58.089Z,15.9
2018-09-04T05:13:47.876Z,15.9
2018-09-04T05:14:38.231Z,15.9
2018-09-04T05:15:28.286Z,15.9
2018-09-04T05:16:18.334Z,15.9
2018-09-04T05:17:07.846Z,15.9
2018-09-04T05:17:58.491Z,16
2018-09-04T05:18:48.533Z,16
2018-09-04T05:19:38.648Z,16
2018-09-04T05:20:28.381Z,16.1
2018-09-04T05:21:18.734Z,16.1
2018-09-04T05:22:08.501Z,16.1
2018-09-04T05:22:58.861Z,16.1
2018-09-04T05:23:48.638Z,16.1
2018-09-04T05:24:39.001Z,16.1
2018-09-04T05:25:29.048Z,16.2
2018-09-04T05:26:19.105Z,16.2
2018-09-04T05:27:09.183Z,16.2
2018-09-04T05:27:58.955Z,16.2
2018-09-04T05:28:49.565Z,16.3
2018-09-04T05:29:39.400Z,16.3
2018-09-04T05:30:29.148Z,16.3
2018-09-04T05:31:19.505Z,16.3
2018-09-04T05:32:09.568Z,16.3
2018-09-04T05:32:59.348Z,16.3
2018-09-04T05:33:49.407Z,16.4
2018-09-04T05:34:39.757Z,16.4
2018-09-04T05:35:29.827Z,16.4
2018-09-04T05:36:20.140Z,16.4
2018-09-04T05:37:09.675Z,16.5
2018-09-04T05:37:59.733Z,16.5
2018-09-04T05:38:50.092Z,16.6
2018-09-04T05:39:40.137Z,16.6
2018-09-04T05:40:29.927Z,16.6
2018-09-04T05:41:19.708Z,16.6
2018-09-04T05:42:10.350Z,16.6
2018-09-04T05:43:00.414Z,16.7
2018-09-04T05:43:50.480Z,16.7
2018-09-04T05:44:40.340Z,16.8
2018-09-04T05:45:30.664Z,16.8
2018-09-04T05:46:20.665Z,16.8
2018-09-04T05:47:10.733Z,16.8
2018-09-04T05:48:00.495Z,16.8
2018-09-04T05:48:50.576Z,16.9
2018-09-04T05:49:40.630Z,16.9
2018-09-04T05:50:30.981Z,16.9
2018-09-04T05:51:20.775Z,16.9
2018-09-04T05:53:01.180Z,17.1
2018-09-04T05:53:51.235Z,17.1
2018-09-04T05:54:41.023Z,17.1
2018-09-04T05:55:31.362Z,17.1
2018-09-04T05:56:21.436Z,17.2
2018-09-04T05:57:11.202Z,17.2
2018-09-04T05:58:01.567Z,17.3
2018-09-04T05:58:51.632Z,17.3
2018-09-04T05:59:41.685Z,17.4
2018-09-04T06:00:31.751Z,17.4
2018-09-04T06:01:21.828Z,17.4
2018-09-04T06:02:11.881Z,17.5
2018-09-04T06:03:01.942Z,17.6
2018-09-04T06:03:52.029Z,17.6
2018-09-04T06:04:42.079Z,17.7
2018-09-04T06:05:32.188Z,17.8
2018-09-04T06:06:22.203Z,17.8
2018-09-04T06:07:11.984Z,17.9
2018-09-04T06:08:02.339Z,17.9
2018-09-04T06:08:52.114Z,18
2018-09-04T06:09:42.185Z,18.1
2018-09-04T06:10:32.236Z,18.2
2018-09-04T06:11:22.587Z,18.2
2018-09-04T06:12:12.362Z,18.3
2018-09-04T06:13:03.028Z,18.4
2018-09-04T06:13:53.071Z,18.4
2018-09-04T06:14:42.842Z,18.6
2018-09-04T06:15:32.909Z,18.6
2018-09-04T06:17:13.053Z,18.8
2018-09-04T06:18:03.100Z,18.9
2018-09-04T06:18:52.878Z,18.9
2018-09-04T06:19:43.226Z,19
2018-09-04T06:20:33.315Z,19.1
2018-09-04T06:21:23.358Z,19.2
2018-09-04T06:22:13.416Z,19.3
2018-09-04T06:23:03.740Z,19.4
2018-09-04T06:23:53.271Z,19.5
2018-09-04T06:24:43.621Z,19.6
2018-09-04T06:25:33.691Z,19.7
2018-09-04T06:26:23.753Z,19.8
2018-09-04T06:27:13.806Z,19.9
2018-09-04T06:28:04.126Z,19.9
2018-09-04T06:28:53.939Z,20.1
2018-09-04T06:29:43.816Z,20.1
2018-09-04T06:30:34.063Z,20.2
2018-09-04T06:31:24.138Z,20.3
2018-09-04T06:32:14.208Z,20.4
2018-09-04T06:33:04.560Z,20.4
2018-09-04T06:33:54.545Z,20.5
2018-09-04T06:34:43.809Z,20.6
2018-09-04T06:35:34.710Z,20.7
2018-09-04T06:36:24.517Z,20.8
2018-09-04T06:37:14.840Z,20.8
2018-09-04T06:38:04.659Z,20.9
2018-09-04T06:38:54.751Z,21
2018-09-04T06:39:44.494Z,21.1
2018-09-04T06:41:24.908Z,21.2
2018-09-04T06:42:15.229Z,21.3
2018-09-04T06:43:04.738Z,21.4
2018-09-04T06:43:55.062Z,21.4
2018-09-04T06:44:45.152Z,21.6
2018-09-04T06:45:35.223Z,21.6
2018-09-04T06:46:25.488Z,21.8
2018-09-04T06:47:15.084Z,21.8
2018-09-04T06:48:05.426Z,21.9
2018-09-04T06:48:55.486Z,22
2018-09-04T06:49:45.539Z,22.1
2018-09-04T06:50:35.589Z,22.2
2018-09-04T06:51:25.663Z,22.3
2018-09-04T06:52:15.440Z,22.4
2018-09-04T06:53:06.058Z,22.5
2018-09-04T06:53:55.863Z,22.6
2018-09-04T06:54:46.087Z,22.8
2018-09-04T06:55:35.990Z,22.9
2018-09-04T06:56:26.055Z,22.9
2018-09-04T06:57:16.127Z,23.1
2018-09-04T06:58:06.183Z,23.2
2018-09-04T06:58:55.962Z,23.3
2018-09-04T06:59:46.315Z,23.4
2018-09-04T07:00:36.085Z,23.6
2018-09-04T07:01:26.450Z,23.7
2018-09-04T07:02:16.221Z,23.8
2018-09-04T07:03:06.575Z,24
2018-09-04T07:03:56.637Z,24.1
2018-09-04T07:04:47.010Z,24.3
2018-09-04T07:05:36.757Z,24.5
2018-09-04T07:06:26.560Z,24.6
2018-09-04T07:07:16.889Z,24.8
2018-09-04T07:08:06.957Z,25
2018-09-04T07:08:57.022Z,25.1
2018-09-04T07:09:47.442Z,25.3
2018-09-04T07:10:37.162Z,25.4
2018-09-04T07:11:27.467Z,25.6
2018-09-04T07:12:17.284Z,25.8
2018-09-04T07:13:07.352Z,25.9
2018-09-04T07:13:57.404Z,26.1
2018-09-04T07:14:47.474Z,26.3
2018-09-04T07:15:37.309Z,26.5
2018-09-04T07:16:27.861Z,26.6
2018-09-04T07:17:17.669Z,26.8
2018-09-04T07:18:07.741Z,27
2018-09-04T07:18:57.834Z,27.1
2018-09-04T07:19:47.573Z,27.3
2018-09-04T07:20:37.923Z,27.4
2018-09-04T07:21:28.292Z,27.6
2018-09-04T07:22:18.050Z,27.8
2018-09-04T07:23:07.821Z,27.9
2018-09-04T07:23:58.382Z,28.1
2018-09-04T07:24:48.241Z,28.3
2018-09-04T07:25:38.311Z,28.4
2018-09-04T07:26:28.372Z,28.6
2018-09-04T07:27:18.451Z,28.8
2018-09-04T07:28:08.508Z,29
2018-09-04T07:28:58.323Z,29.3
2018-09-04T07:29:48.635Z,29.5
2018-09-04T07:30:38.405Z,29.7
2018-09-04T07:31:28.802Z,29.9
2018-09-04T07:32:18.538Z,30.2
2018-09-04T07:33:09.177Z,30.4
2018-09-04T07:33:58.670Z,30.6
2018-09-04T07:34:49.020Z,30.8
2018-09-04T07:35:39.075Z,30.9
2018-09-04T07:36:29.178Z,31.1
2018-09-04T07:37:18.922Z,31.3
2018-09-04T07:38:09.279Z,31.4
2018-09-04T07:38:59.333Z,31.5
2018-09-04T07:39:49.395Z,31.6
2018-09-04T07:40:39.538Z,31.7
2018-09-04T07:41:29.592Z,31.8
2018-09-04T07:42:19.297Z,31.9
2018-09-04T07:43:09.357Z,32.1
2018-09-04T07:43:59.717Z,32.2
2018-09-04T07:44:49.216Z,32.4
2018-09-04T07:45:39.833Z,32.6
2018-09-04T07:46:29.952Z,33.1
2018-09-04T07:47:19.982Z,33.8
2018-09-04T07:48:10.035Z,34.6
2018-09-04T07:49:00.141Z,35.4
2018-09-04T07:49:50.164Z,36.3
2018-09-04T07:50:40.224Z,37.1
2018-09-04T07:51:30.286Z,32.1
2018-09-04T07:52:20.349Z,24.1
2018-09-04T07:53:10.427Z,33.7
2018-09-04T07:54:00.486Z,39.8
2018-09-04T07:54:50.561Z,40.9
2018-09-04T07:55:40.606Z,41.6
2018-09-04T07:56:30.656Z,41.8
2018-09-04T07:57:20.762Z,41.9
2018-09-04T07:58:10.813Z,41.6
2018-09-04T07:59:00.876Z,41.4
2018-09-04T07:59:50.933Z,41.2
2018-09-04T08:00:40.711Z,41.1
2018-09-04T08:01:31.331Z,41.1
2018-09-04T08:02:20.848Z,41.1
2018-09-04T08:03:11.188Z,41.6
2018-09-04T08:04:01.258Z,42.1
2018-09-04T08:04:51.031Z,42.9
2018-09-04T08:05:41.096Z,43.9
2018-09-04T08:06:31.450Z,43
2018-09-04T08:07:21.778Z,43
2018-09-04T08:08:11.583Z,44.6
2018-09-04T08:09:01.367Z,44.2
2018-09-04T08:09:51.423Z,47.2
2018-09-04T08:10:41.787Z,49.1
2018-09-04T08:11:31.825Z,49.4
2018-09-04T08:12:22.159Z,49.2
2018-09-04T08:13:11.963Z,49
2018-09-04T08:14:02.031Z,48.8
2018-09-04T08:14:52.103Z,48.9
2018-09-04T08:15:42.161Z,49.1
2018-09-04T08:16:32.236Z,49.1
2018-09-04T08:17:21.997Z,49.1
2018-09-04T08:18:12.349Z,48.9
2018-09-04T08:19:02.420Z,48.8
2018-09-04T08:19:52.197Z,48.9
2018-09-04T08:20:42.729Z,49.4
2018-09-04T08:21:32.622Z,49.9
2018-09-04T08:22:22.678Z,50.3
2018-09-04T08:23:12.457Z,50.5
2018-09-04T09:14:57.641Z,59.4
2018-09-04T09:15:47.441Z,59.6
2018-09-04T09:16:37.617Z,59.7
2018-09-04T09:17:27.284Z,59.8
2018-09-04T09:18:17.897Z,59.9
2018-09-04T09:19:07.711Z,59.9
2018-09-04T09:19:57.807Z,60.1
2018-09-04T09:20:47.811Z,60.1
2018-09-04T09:21:37.601Z,60.2
2018-09-04T09:22:27.936Z,60.3
2018-09-04T09:23:18.279Z,60.3
2018-09-04T09:24:07.799Z,60.4
2018-09-04T09:24:58.383Z,60.6
2018-09-04T09:25:48.214Z,60.6
2018-09-04T09:26:38.510Z,60.7
2018-09-04T09:27:28.059Z,60.8
2018-09-04T09:28:18.401Z,60.9
2018-09-04T09:29:08.453Z,60.9
2018-09-04T09:29:58.543Z,61
2018-09-04T09:30:48.601Z,61.1
2018-09-04T09:31:38.676Z,61.2
2018-09-04T09:32:28.731Z,61.3
2018-09-04T09:33:18.794Z,61.3
2018-09-04T09:34:09.095Z,61.3
2018-09-04T09:34:59.028Z,61.4
2018-09-04T09:35:48.992Z,61.5
2018-09-04T09:36:39.568Z,61.6
2018-09-04T09:37:29.115Z,61.7
2018-09-04T09:38:18.902Z,61.8
2018-09-04T09:39:09.497Z,61.9
2018-09-04T09:39:59.050Z,61.9
2018-09-04T09:40:49.097Z,62
2018-09-04T09:41:39.701Z,62.1
2018-09-04T09:42:29.225Z,62.1
2018-09-04T09:43:19.570Z,62.3
2018-09-04T09:44:09.937Z,62.3
2018-09-04T09:44:59.716Z,62.4
2018-09-04T09:45:49.767Z,62.4
2018-09-04T09:46:39.846Z,62.6
2018-09-04T09:47:29.900Z,62.6
2018-09-04T09:48:19.675Z,62.7
2018-09-04T09:49:10.295Z,62.8
2018-09-04T09:49:59.830Z,62.9
2018-09-04T09:50:50.602Z,62.9
2018-09-04T09:51:40.223Z,63
2018-09-04T09:52:30.176Z,63.1
2018-09-04T09:53:21.472Z,63.2
2018-09-04T09:54:10.703Z,63.3
2018-09-04T09:55:00.493Z,63.3
2018-09-04T09:55:50.272Z,63.3
2018-09-04T09:56:40.690Z,63.4
2018-09-04T09:57:30.502Z,63.6
2018-09-04T09:58:20.753Z,63.6
2018-09-04T09:59:10.814Z,63.7
2018-09-04T10:00:01.475Z,63.8
2018-09-04T10:00:50.950Z,63.9
2018-09-04T10:01:41.156Z,64
2018-09-04T10:02:31.184Z,64.1
2018-09-04T10:03:21.127Z,64.1
2018-09-04T10:04:11.789Z,64.1
2018-09-04T10:05:01.245Z,64.2
2018-09-04T10:05:51.032Z,64.3
2018-09-04T10:06:41.422Z,64.4
2018-09-04T10:07:32.544Z,64.4
2018-09-04T10:08:21.628Z,64.5
2018-09-04T10:09:11.638Z,64.6
2018-09-04T10:10:01.798Z,64.7
2018-09-04T10:10:51.722Z,64.8
2018-09-04T10:11:41.476Z,64.8
2018-09-04T10:12:31.816Z,64.9
2018-09-04T10:13:21.884Z,64.9
2018-09-04T10:14:11.961Z,65.1
2018-09-04T10:15:16.923Z,65.1
2018-09-04T10:15:52.106Z,65.3
2018-09-04T10:16:42.130Z,65.3
2018-09-04T10:17:32.242Z,65.3
2018-09-04T10:18:22.002Z,65.4
2018-09-04T10:19:12.341Z,65.4
2018-09-04T10:20:02.688Z,65.6
2018-09-04T10:20:53.023Z,65.6
2018-09-04T10:21:42.825Z,65.7
2018-09-04T10:22:32.610Z,65.8
2018-09-04T10:23:22.435Z,65.8
2018-09-04T10:24:12.737Z,65.8
2018-09-04T10:25:02.615Z,65.9
2018-09-04T10:25:53.182Z,66
2018-09-04T10:26:43.185Z,66.1
2018-09-04T10:27:33.253Z,66.2
2018-09-04T10:28:23.077Z,66.3
2018-09-04T10:29:12.857Z,66.3
2018-09-04T10:30:02.935Z,66.4
2018-09-04T10:30:53.530Z,66.4
2018-09-04T10:31:43.320Z,66.5
2018-09-04T10:32:33.391Z,66.6
2018-09-04T10:33:23.210Z,66.6
2018-09-04T10:34:13.509Z,66.7
2018-09-04T10:35:03.593Z,66.8
2018-09-04T10:35:53.912Z,66.8
2018-09-04T10:36:43.717Z,66.8
2018-09-04T10:37:34.212Z,66.9
2018-09-04T10:38:24.079Z,67
2018-09-04T16:15:49.493Z,35.9
2018-09-04T16:16:39.228Z,35.7
2018-09-04T16:17:29.569Z,35.6
2018-09-04T16:18:19.654Z,35.4
2018-09-04T16:19:09.714Z,35.3
2018-09-04T16:20:00.010Z,35.2
2018-09-04T16:20:50.131Z,35.1
2018-09-04T16:21:40.140Z,34.9
2018-09-04T16:22:29.921Z,34.8
2018-09-04T16:23:20.269Z,34.6
2018-09-04T16:24:09.804Z,34.6
2018-09-04T16:25:00.445Z,34.4
2018-09-04T16:25:49.968Z,34.3
2018-09-04T16:26:40.518Z,34.2
2018-09-04T16:27:31.120Z,34.1
2018-09-04T16:28:20.865Z,33.9
2018-09-04T16:29:10.717Z,33.9
2018-09-04T16:30:00.789Z,33.8
2018-09-04T16:30:51.063Z,33.6
2018-09-04T16:31:40.646Z,33.5
2018-09-04T16:32:31.689Z,33.4
2018-09-04T16:33:21.044Z,33.3
2018-09-04T16:34:11.296Z,33.2
2018-09-04T16:35:01.819Z,33.1
2018-09-04T16:35:51.710Z,32.9
2018-09-04T16:36:56.248Z,32.8
2018-09-04T16:37:31.124Z,32.7
2018-09-04T16:38:21.435Z,32.6
2018-09-04T16:39:11.539Z,32.5
2018-09-04T16:40:01.613Z,32.4
2018-09-04T16:40:51.653Z,32.3
2018-09-04T16:41:41.545Z,32.1
2018-09-04T16:42:31.788Z,32.1
2018-09-04T16:43:21.834Z,31.9
2018-09-04T16:44:11.913Z,31.9
2018-09-04T16:45:01.987Z,31.7
2018-09-04T16:45:51.768Z,31.6
2018-09-04T16:46:42.094Z,31.6
2018-09-04T16:47:31.911Z,31.4
2018-09-04T16:48:22.225Z,31.3
2018-09-04T16:49:26.591Z,31.3
2018-09-04T16:50:02.099Z,31.1
2018-09-04T16:50:52.428Z,31.1
2018-09-04T16:51:43.003Z,30.9
2018-09-04T16:52:32.288Z,30.9
2018-09-04T16:53:22.370Z,30.8
2018-09-04T16:54:12.696Z,30.7
2018-09-04T16:55:02.766Z,30.6
2018-09-04T16:55:52.548Z,30.5
2018-09-04T16:56:43.125Z,30.4
2018-09-04T16:57:33.702Z,30.3
2018-09-04T16:58:23.023Z,30.3
2018-09-04T16:59:12.544Z,30.2
2018-09-04T17:00:03.160Z,30.1
2018-09-04T17:00:53.220Z,29.9
2018-09-04T17:01:43.860Z,29.9
2018-09-04T17:02:33.342Z,29.8
2018-09-04T17:03:23.455Z,29.6
2018-09-04T17:04:28.056Z,29.5
2018-09-04T17:05:03.737Z,29.4
2018-09-04T17:05:53.609Z,29.3
2018-09-04T17:06:43.668Z,29.3
2018-09-04T17:07:34.032Z,29.1
2018-09-04T17:08:24.102Z,29.1
2018-09-04T17:09:13.871Z,28.9
2018-09-04T17:10:03.934Z,28.8
2018-09-04T17:10:54.066Z,28.7
2018-09-04T17:11:44.090Z,28.6
2018-09-04T17:12:34.688Z,28.5
2018-09-04T17:13:24.218Z,28.4
2018-09-04T17:14:14.699Z,28.3
2018-09-04T17:15:04.331Z,28.3
2018-09-04T17:15:54.418Z,28.1
2018-09-04T17:16:44.184Z,28
2018-09-04T17:19:14.846Z,27.7
2018-09-04T17:20:04.725Z,27.6
2018-09-04T17:20:54.823Z,27.5
2018-09-04T17:21:45.650Z,27.4
2018-09-04T17:22:34.912Z,27.3
2018-09-04T17:23:25.048Z,27.3
2018-09-04T17:24:15.044Z,27.1
2018-09-04T17:25:05.155Z,27.1
2018-09-04T17:25:55.279Z,26.9
2018-09-04T17:27:35.016Z,26.8
2018-09-04T17:28:25.939Z,26.7
2018-09-04T17:29:15.670Z,26.6
2018-09-04T17:30:05.508Z,26.5
2018-09-04T17:30:56.058Z,26.4
2018-09-04T17:31:45.370Z,26.4
2018-09-04T17:32:35.957Z,26.3
2018-09-04T17:33:25.528Z,26.2
2018-09-04T17:34:15.559Z,26.1
2018-09-04T17:35:05.652Z,26
2018-09-04T17:35:55.709Z,25.9
2018-09-04T17:36:45.792Z,25.9
2018-09-04T17:37:35.797Z,25.8
2018-09-04T17:38:26.313Z,25.7
2018-09-04T17:39:15.696Z,25.6
2018-09-04T17:40:20.692Z,25.6
2018-09-04T17:40:56.112Z,25.4
2018-09-04T17:41:46.159Z,25.4
2018-09-04T17:42:36.229Z,25.3
2018-09-04T17:43:26.291Z,25.3
2018-09-04T17:44:16.074Z,25.2
2018-09-04T17:45:06.426Z,25.1
2018-09-04T17:45:56.483Z,25
2018-09-04T17:46:46.269Z,24.9
2018-09-04T17:47:36.503Z,24.9
2018-09-04T17:48:26.688Z,24.8
2018-09-04T17:49:16.786Z,24.8
2018-09-04T17:50:06.815Z,24.7
2018-09-04T17:50:56.880Z,24.6
2018-09-04T17:51:46.660Z,24.6
2018-09-04T17:52:37.025Z,24.5
2018-09-04T17:53:27.083Z,24.4
2018-09-04T17:54:17.150Z,24.4
2018-09-04T17:55:06.937Z,24.3
2018-09-04T17:55:57.292Z,24.3
2018-09-04T17:56:47.050Z,24.1
2018-09-04T17:57:37.129Z,24.1
2018-09-04T17:58:27.483Z,24.1
2018-09-04T17:59:17.537Z,24
2018-09-04T18:00:07.312Z,23.9
2018-09-04T18:00:57.945Z,23.9
2018-09-04T18:01:47.728Z,23.8
2018-09-04T18:02:37.785Z,23.8
2018-09-04T18:03:27.870Z,23.8
2018-09-04T18:04:17.649Z,23.7
2018-09-04T18:05:08.004Z,23.6
2018-09-04T18:05:58.069Z,23.6
2018-09-04T18:06:48.115Z,23.5
2018-09-04T18:07:37.940Z,23.4
2018-09-04T18:08:28.280Z,23.4
2018-09-04T18:09:17.745Z,23.3
2018-09-04T18:10:08.440Z,23.3
2018-09-04T18:10:58.203Z,23.3
2018-09-04T18:11:48.561Z,23.2
2018-09-04T18:12:38.632Z,23.1
2018-09-04T18:13:28.676Z,23.1
2018-09-04T18:14:18.740Z,23.1
2018-09-04T18:15:09.013Z,23
2018-09-04T18:15:58.839Z,22.9
2018-09-04T18:16:48.899Z,22.9